Latest Weather Observations for Davis*

IDT60801

Issued at 6:31 pm EST Sunday 9 August 2020 (issued every 10 minutes, with the page automatically refreshed every 10 minutes)

About weather observations | Map of weather stations | Latest weather observations for ANT | Other Formats
Station Details ID: 300000 Name: DAVIS Lat: -68.57 Lon: 77.97 Height: 18.0 m
Data from the previous 72 hours. | See also: Recent months at Davis*
Date/Time
EST
Temp
°C
App
Temp
°C
Dew
Point
°C
Rel
Hum
%
Delta-T
°C
Wind Press
QNH
hPa
Press
MSL
hPa
Rain since
9am
mm
Dir  Spd
km/h
Gust
km/h
Spd
kts
Gust
kts
09/06:30pm -11.2 -19.9 -14.6 76 - NNE 28 35 15 19 1001.7 - -
09/06:00pm -11.2 -19.9 -14.4 77 - NNE 28 39 15 21 1001.3 - -
09/05:30pm -11.1 -20.1 -14.3 77 - NNE 30 37 16 20 1001.1 - -
09/05:00pm -10.9 -20.3 -13.8 79 - NNE 32 37 17 20 1000.6 - -
09/04:30pm -10.8 -19.4 -13.4 81 - NNE 28 35 15 19 1000.2 - -
09/04:00pm -10.8 -20.2 -13.3 82 - NE 32 41 17 22 999.8 1000.1 -
09/03:30pm -10.4 -19.9 -12.3 86 - NNE 33 41 18 22 999.5 - -
09/03:00pm -8.8 -19.0 -11.5 81 - NE 37 48 20 26 999.1 - -
09/02:30pm -8.4 -19.0 -12.2 74 - NE 39 54 21 29 998.4 - -
09/02:00pm -8.2 -20.1 -11.7 76 - NNE 46 61 25 33 997.6 - -
09/01:52pm -8.6 -20.2 -12.0 76 - NNE 44 56 24 30 997.7 - -
09/01:37pm -7.9 -17.2 -11.9 73 - ENE 32 56 17 30 997.7 - -
09/01:30pm -8.6 -17.1 -12.4 74 - ENE 28 39 15 21 997.7 - -
09/01:00pm -9.0 -15.9 -13.1 72 - E 19 24 10 13 997.7 998.1 -
09/12:30pm -9.3 -18.3 -13.2 73 - NE 30 39 16 21 997.5 - -
09/12:00pm -9.9 -18.5 -14.0 72 - NE 28 39 15 21 997.3 - -
09/11:30am -10.2 -19.8 -14.3 72 - NNE 33 43 18 23 997.2 - -
09/11:00am -10.4 -20.7 -14.1 74 - NNE 37 57 20 31 997.0 - -
09/10:59am -10.5 -20.9 -14.2 74 - NNE 37 57 20 31 997.0 - -
09/10:30am -10.1 -21.6 -13.7 75 - NNE 43 54 23 29 996.5 - -
09/10:00am -10.4 -22.1 -14.1 74 - NE 44 52 24 28 996.4 996.8 -
09/09:30am -10.8 -20.4 -14.8 72 - NE 33 43 18 23 996.3 - -
09/09:29am -10.7 -20.7 -14.7 72 - NE 35 54 19 29 996.3 - -
09/09:00am -10.2 -20.9 -14.1 73 - NE 39 48 21 26 995.5 - -
09/08:30am -10.3 -21.8 -14.2 73 - ENE 43 57 23 31 995.2 - -
09/08:00am -9.8 -21.3 -14.4 69 - ENE 43 56 23 30 995.3 - -
09/07:30am -10.0 -21.1 -13.7 74 - NE 41 56 22 30 995.2 - -
09/07:00am -10.4 -21.5 -14.0 75 - NE 41 50 22 27 995.8 996.2 -
09/06:30am -10.4 -21.1 -13.6 77 - NE 39 50 21 27 995.6 - -
09/06:00am -10.3 -19.9 -14.2 73 - NE 33 43 18 23 995.6 - -
09/05:30am -10.3 -21.4 -13.9 75 - NE 41 54 22 29 995.1 - -
09/05:00am -10.5 -19.5 -14.1 75 - NE 30 46 16 25 995.0 - -
09/04:30am -11.4 -19.3 -14.6 77 - NE 24 30 13 16 994.8 - -
09/04:00am -11.4 -19.7 -14.8 76 - NE 26 33 14 18 994.3 994.7 -
09/03:30am -11.2 -18.4 -14.9 74 - NE 20 28 11 15 994.3 - -
09/03:00am -11.1 -18.1 -15.0 73 - ENE 19 24 10 13 994.4 - -
09/02:30am -10.9 -20.5 -14.6 74 - ENE 33 43 18 23 994.4 - -
09/02:00am -11.1 -19.4 -15.0 73 - NE 26 32 14 17 994.8 - -
09/01:30am -10.9 -22.4 -14.4 75 - NE 43 50 23 27 994.5 - -
09/01:00am -11.3 -21.0 -15.8 69 - NE 33 43 18 23 994.6 995.0 -
09/12:30am -12.3 -21.4 -16.1 73 - NE 30 35 16 19 994.5 - -
09/12:00am -12.3 -21.0 -16.1 73 - NE 28 33 15 18 994.5 - -
 
Date/Time
EST
Temp
°C
App
Temp
°C
Dew
Point
°C
Rel
Hum
%
Delta-T
°C
Wind Press
QNH
hPa
Press
MSL
hPa
Rain since
9am
mm
Dir  Spd
km/h
Gust
km/h
Spd
kts
Gust
kts
08/11:30pm -12.5 -20.5 -16.6 71 - NE 24 28 13 15 994.6 - -
08/11:00pm -12.3 -19.6 -17.0 68 - NE 20 28 11 15 994.6 - -
08/10:30pm -11.8 -18.5 -16.3 69 - E 17 24 9 13 994.8 - -
08/10:00pm -11.3 -21.4 -15.8 69 - NE 35 41 19 22 994.5 994.9 -
08/09:30pm -11.4 -21.8 -15.1 74 - NNE 37 44 20 24 994.1 - -
08/09:00pm -11.5 -23.6 -15.2 74 - NE 46 54 25 29 993.9 - -
08/08:30pm -10.8 -22.5 -14.7 73 - NE 44 54 24 29 993.6 - -
08/08:00pm -10.8 -20.3 -15.2 70 - NE 32 41 17 22 994.0 - -
08/07:30pm -11.1 -19.0 -15.3 71 - NE 24 33 13 18 994.2 - -
08/07:00pm -11.2 -18.2 -15.4 71 - ENE 19 28 10 15 994.3 994.7 -
08/06:30pm -11.9 -18.5 -15.3 76 - ENE 17 20 9 11 994.4 - -
08/06:00pm -11.1 -18.2 -14.6 75 - NE 20 28 11 15 994.1 - -
08/05:30pm -10.4 -20.0 -14.0 75 - NE 33 43 18 23 994.1 - -
08/05:00pm -10.3 -19.9 -14.0 74 - NE 33 44 18 24 994.2 - -
08/04:30pm -10.7 -20.1 -14.1 76 - ENE 32 43 17 23 994.5 - -
08/04:21pm -10.5 -20.5 -14.4 73 - ENE 35 54 19 29 994.5 - -
08/04:00pm -10.2 -21.6 -13.4 77 - ENE 43 59 23 32 994.4 994.8 -
08/03:30pm -10.3 -21.0 -13.7 76 - NE 39 50 21 27 994.3 - -
08/03:00pm -10.5 -20.1 -14.1 75 - NE 33 43 18 23 994.7 - -
08/02:45pm -10.5 -20.5 -13.9 76 - NE 35 54 19 29 994.3 - -
08/02:30pm -10.8 -21.5 -13.9 78 - NE 39 50 21 27 994.3 - -
08/02:00pm -10.9 -22.0 -13.8 79 - NE 41 50 22 27 994.2 - -
08/01:30pm -10.5 -22.9 -13.1 81 - NNE 48 61 26 33 994.0 - -
08/01:00pm -10.3 -23.0 -12.8 82 - NE 50 59 27 32 993.9 994.3 -
08/12:30pm -10.4 -23.1 -12.7 83 - NE 50 63 27 34 993.7 - -
08/12:15pm -10.2 -21.8 -12.8 81 - NE 44 63 24 34 993.9 - -
08/12:00pm -10.4 -21.8 -12.9 82 - NNE 43 56 23 30 994.2 - -
08/11:30am -10.3 -22.3 -12.6 83 - NE 46 61 25 33 994.0 - -
08/11:26am -10.1 -22.1 -12.6 82 - NE 46 61 25 33 993.8 - -
08/11:00am -9.8 -19.1 -13.1 77 - NE 32 41 17 22 994.6 - -
08/10:58am -9.9 -19.4 -13.2 77 - NE 33 52 18 28 994.6 - -
08/10:30am -9.7 -20.0 -13.1 76 - NE 37 46 20 25 994.5 - -
08/10:00am -8.9 -18.8 -12.8 73 - NE 35 46 19 25 994.3 994.7 -
08/09:40am -8.5 -17.8 -13.0 70 - NE 32 50 17 27 994.6 - -
08/09:30am -8.4 -18.7 -12.9 70 - NE 37 52 20 28 994.2 - -
08/09:05am -8.5 -17.8 -13.0 70 - NE 32 54 17 29 994.6 - -
08/09:00am -9.0 -15.1 -12.9 73 - E 15 26 8 14 994.9 - -
08/08:30am -10.4 -17.5 -14.3 73 - ESE 20 32 11 17 994.7 - -
08/08:00am -10.1 -18.8 -14.3 71 - ESE 28 35 15 19 994.5 - -
08/07:30am -10.2 -18.9 -14.6 70 - E 28 35 15 19 994.4 - -
08/07:00am -10.4 -20.0 -14.6 71 - E 33 43 18 23 994.1 994.5 -
08/06:30am -11.1 -21.5 -15.0 73 - E 37 46 20 25 994.0 - -
08/06:00am -10.1 -19.7 -14.5 70 - E 33 43 18 23 993.9 - -
08/05:30am -9.9 -18.1 -13.8 73 - E 26 33 14 18 994.0 - -
08/05:00am -10.5 -17.6 -14.1 75 - E 20 24 11 13 994.0 - -
08/04:30am -10.2 -16.7 -13.4 77 - E 17 28 9 15 994.0 - -
08/04:00am -9.8 -18.4 -13.4 75 - ENE 28 33 15 18 993.6 994.0 -
08/03:30am -10.1 -19.5 -13.3 77 - NE 32 37 17 20 993.6 - -
08/03:00am -10.4 -21.8 -13.0 81 - NE 43 52 23 28 992.9 - -
08/02:53am -10.3 -19.8 -12.9 81 - ENE 33 52 18 28 992.9 - -
08/02:30am -10.4 -19.0 -13.2 80 - ENE 28 35 15 19 993.2 - -
08/02:00am -10.5 -20.8 -13.1 81 - ENE 37 46 20 25 992.8 - -
08/01:30am -11.0 -21.3 -13.5 82 - ENE 37 48 20 26 992.6 - -
08/01:04am -10.7 -20.3 -13.5 80 - NE 33 52 18 28 992.8 - -
08/01:00am -10.3 -20.2 -13.1 80 - NE 35 52 19 28 992.8 993.2 -
08/12:30am -10.7 -22.7 -12.6 86 - NNE 46 59 25 32 992.5 - -
08/12:16am -10.6 -23.7 -12.3 87 - NNE 52 61 28 33 992.2 - -
08/12:00am -10.9 -21.9 -12.8 86 - ENE 41 50 22 27 992.3 - -
 
Date/Time
EST
Temp
°C
App
Temp
°C
Dew
Point
°C
Rel
Hum
%
Delta-T
°C
Wind Press
QNH
hPa
Press
MSL
hPa
Rain since
9am
mm
Dir  Spd
km/h
Gust
km/h
Spd
kts
Gust
kts
07/11:30pm -11.0 -22.0 -12.9 86 - ENE 41 61 22 33 992.2 - -
07/11:29pm -11.0 -22.4 -12.9 86 - ENE 43 61 23 33 992.2 - -
07/11:00pm -11.2 -21.9 -12.8 88 - ENE 39 50 21 27 992.0 - -
07/10:50pm -11.5 -22.9 -12.9 89 - ENE 43 61 23 33 992.0 - -
07/10:30pm -11.0 -22.0 -12.7 87 - ENE 41 57 22 31 991.8 - -
07/10:24pm -11.0 -21.6 -12.7 87 - ENE 39 57 21 31 991.6 - -
07/10:00pm -11.5 -20.9 -13.6 84 - ENE 32 44 17 24 991.7 992.1 -
07/09:30pm -12.0 -20.6 -14.0 85 - ENE 28 41 15 22 992.0 - -
07/09:00pm -11.8 -20.4 -14.2 82 - ENE 28 37 15 20 992.2 - -
07/08:30pm -12.6 -22.3 -15.6 78 - ENE 33 43 18 23 991.7 - -
07/08:08pm -12.8 -22.3 -15.5 80 - ENE 32 56 17 30 991.6 - -
07/08:00pm -12.6 -21.7 -15.8 77 - ENE 30 44 16 24 991.8 - -
07/07:30pm -13.4 -21.8 -16.7 76 - ENE 26 33 14 18 992.0 - -
07/07:00pm -14.3 -23.9 -17.3 78 - ENE 32 37 17 20 991.7 992.1 -
07/06:30pm -15.6 -23.7 -18.2 80 - ENE 24 35 13 19 991.7 - -
07/06:00pm -16.2 -23.5 -18.4 83 - ENE 20 28 11 15 991.6 - -
07/05:30pm -16.2 -23.5 -18.4 83 - ENE 20 26 11 14 991.7 - -
07/05:00pm -15.9 -24.4 -18.2 82 - ENE 26 30 14 16 991.6 - -
07/04:30pm -16.8 -23.6 -19.0 83 - ENE 17 20 9 11 991.6 - -
07/04:00pm -18.0 -24.8 -20.6 80 - ENE 17 20 9 11 991.5 991.9 -
07/03:30pm -17.2 -23.2 -19.8 80 - ENE 13 15 7 8 991.5 - -
07/03:00pm -17.1 -22.4 -19.9 79 - ENE 9 11 5 6 991.5 - -
07/02:30pm -18.4 -23.7 -21.1 79 - ENE 9 11 5 6 991.4 - -
07/02:00pm -17.9 -24.7 -20.5 80 - ENE 17 19 9 10 991.1 - -
07/01:30pm -18.2 -25.4 -20.9 79 - ENE 19 20 10 11 991.1 - -
07/01:00pm -18.1 -25.5 -21.3 76 - ENE 20 22 11 12 991.1 991.5 -
07/12:30pm -18.5 -25.7 -21.1 80 - ENE 19 22 10 12 990.9 - -
07/12:00pm -18.7 -26.1 -21.1 81 - ENE 20 22 11 12 990.8 - -
07/11:30am -18.9 -26.3 -21.2 82 - ENE 20 22 11 12 990.4 - -
07/11:00am -19.2 -26.4 -21.5 82 - ENE 19 19 10 10 990.5 - -
07/10:30am -19.4 -26.3 -21.5 83 - ENE 17 19 9 10 990.3 - -
07/10:00am -20.0 -26.9 -22.1 83 - ENE 17 19 9 10 990.0 990.4 -
07/09:30am -19.5 -26.7 -21.5 84 - ENE 19 20 10 11 989.9 - -
07/09:00am -19.6 -27.0 -21.6 84 - ENE 20 20 11 11 989.7 - -
07/08:30am -18.8 -26.0 -20.9 83 - ENE 19 20 10 11 989.4 - -
07/08:00am -18.6 -25.8 -21.0 81 - ENE 19 20 10 11 989.1 - -
07/07:30am -18.2 -25.0 -20.5 82 - ENE 17 20 9 11 988.8 - -
07/07:00am -19.5 -26.8 -21.9 81 - ENE 19 20 10 11 988.6 989.0 -
07/06:30am -19.1 -24.4 -21.4 82 - ENE 9 13 5 7 988.3 - -
07/06:00am -19.8 -25.5 -21.8 84 - ENE 11 13 6 7 988.3 - -
07/05:30am -20.9 -26.3 -23.1 82 - ENE 9 13 5 7 988.2 - -
07/05:00am -21.3 -26.7 -23.4 83 - ENE 9 13 5 7 988.0 - -
07/04:30am -21.7 -28.3 -24.1 81 - ENE 15 17 8 9 987.7 - -
07/04:00am -21.8 -28.4 -24.0 82 - ENE 15 19 8 10 987.3 987.7 -
07/03:30am -21.1 -27.3 -23.2 83 - ENE 13 15 7 8 987.3 - -
07/03:00am -21.8 -27.2 -24.3 80 - ENE 9 13 5 7 987.0 - -
07/02:30am -22.2 -28.4 -24.8 79 - ENE 13 15 7 8 986.5 - -
07/02:00am -24.6 -30.5 -27.3 78 - ENE 11 13 6 7 986.1 - -
07/01:30am -21.8 -27.2 -24.2 81 - ENE 9 11 5 6 985.7 - -
07/01:00am -23.1 -28.0 -25.4 81 - ENE 6 9 3 5 985.6 985.9 -
07/12:30am -22.2 -27.1 -24.4 82 - ENE 6 9 3 5 985.1 - -
07/12:00am -23.1 -28.0 -25.6 80 - ENE 6 7 3 4 984.9 - -
 
Date/Time
EST
Temp
°C
App
Temp
°C
Dew
Point
°C
Rel
Hum
%
Delta-T
°C
Wind Press
QNH
hPa
Press
MSL
hPa
Rain since
9am
mm
Dir  Spd
km/h
Gust
km/h
Spd
kts
Gust
kts
06/11:30pm -20.9 -25.7 -23.0 83 - ENE 6 7 3 4 984.6 - -
06/11:00pm -21.2 -26.0 -23.4 82 - ENE 6 7 3 4 984.0 - -
06/10:30pm -21.6 -25.3 -24.0 81 - CALM 0 0 0 0 983.5 - -
06/10:19pm -20.9 -24.6 -23.1 82 - CALM 0 0 0 0 983.4 - -
06/10:00pm -20.8 -24.5 -23.0 82 - CALM 0 0 0 0 983.2 983.5 -

Other formats

Comma delimited format used in spreadsheet applications
http://www.bom.gov.au/fwo/IDT60803/IDT60803.89571.axf

JavaScript Object Notation format (JSON) in row-major order
http://www.bom.gov.au/fwo/IDT60803/IDT60803.89571.json

Data quality

Most of these data are generated automatically and are frequently updated. Quality checks on data are not normally performed. It is possible for incorrect values to appear. Refer to information at About Latest Weather Observations and please check the disclaimer before using these data.